sensor_id;sensor_type;location;lat;lon;timestamp;temperature;humidity
52739;DHT22;52466;40.122;18.318;2022-08-25T00:00:04;25.30;73.60
52739;DHT22;52466;40.122;18.318;2022-08-25T00:03:13;25.30;73.80
52739;DHT22;52466;40.122;18.318;2022-08-25T00:06:21;25.30;73.90
52739;DHT22;52466;40.122;18.318;2022-08-25T00:09:30;25.30;73.90
52739;DHT22;52466;40.122;18.318;2022-08-25T00:12:39;25.30;74.00
52739;DHT22;52466;40.122;18.318;2022-08-25T00:15:46;25.30;74.20
52739;DHT22;52466;40.122;18.318;2022-08-25T00:18:56;25.30;74.40
52739;DHT22;52466;40.122;18.318;2022-08-25T00:22:05;25.30;74.50
52739;DHT22;52466;40.122;18.318;2022-08-25T00:25:13;25.20;74.70
52739;DHT22;52466;40.122;18.318;2022-08-25T00:28:21;25.20;74.70
52739;DHT22;52466;40.122;18.318;2022-08-25T00:31:29;25.20;74.90
52739;DHT22;52466;40.122;18.318;2022-08-25T00:34:37;25.20;75.10
52739;DHT22;52466;40.122;18.318;2022-08-25T00:37:45;25.20;75.20
52739;DHT22;52466;40.122;18.318;2022-08-25T00:40:53;25.30;75.20
52739;DHT22;52466;40.122;18.318;2022-08-25T00:44:13;25.20;75.30
52739;DHT22;52466;40.122;18.318;2022-08-25T00:47:24;25.20;75.40
52739;DHT22;52466;40.122;18.318;2022-08-25T00:50:33;25.20;75.50
52739;DHT22;52466;40.122;18.318;2022-08-25T00:53:41;25.20;75.50
52739;DHT22;52466;40.122;18.318;2022-08-25T00:56:50;25.20;75.50
52739;DHT22;52466;40.122;18.318;2022-08-25T00:59:58;25.20;75.50
52739;DHT22;52466;40.122;18.318;2022-08-25T01:03:07;25.20;75.50
52739;DHT22;52466;40.122;18.318;2022-08-25T01:06:14;25.20;75.50
52739;DHT22;52466;40.122;18.318;2022-08-25T01:09:22;25.10;75.50
52739;DHT22;52466;40.122;18.318;2022-08-25T01:12:30;25.10;75.50
52739;DHT22;52466;40.122;18.318;2022-08-25T01:15:37;25.10;75.40
52739;DHT22;52466;40.122;18.318;2022-08-25T01:18:52;25.10;75.30
52739;DHT22;52466;40.122;18.318;2022-08-25T01:22:00;25.10;75.30
52739;DHT22;52466;40.122;18.318;2022-08-25T01:25:38;25.10;75.20
52739;DHT22;52466;40.122;18.318;2022-08-25T01:28:49;25.10;75.10
52739;DHT22;52466;40.122;18.318;2022-08-25T01:32:16;25.00;75.10
52739;DHT22;52466;40.122;18.318;2022-08-25T01:35:23;25.10;75.00
52739;DHT22;52466;40.122;18.318;2022-08-25T01:38:31;25.10;75.10
52739;DHT22;52466;40.122;18.318;2022-08-25T01:41:58;25.00;75.10
52739;DHT22;52466;40.122;18.318;2022-08-25T01:45:09;25.10;75.10
52739;DHT22;52466;40.122;18.318;2022-08-25T01:48:17;25.00;75.10
52739;DHT22;52466;40.122;18.318;2022-08-25T01:51:29;25.10;75.10
52739;DHT22;52466;40.122;18.318;2022-08-25T01:54:39;25.10;75.10
52739;DHT22;52466;40.122;18.318;2022-08-25T01:57:46;25.10;75.10
52739;DHT22;52466;40.122;18.318;2022-08-25T02:00:57;25.10;75.10
52739;DHT22;52466;40.122;18.318;2022-08-25T02:04:05;25.10;75.10
52739;DHT22;52466;40.122;18.318;2022-08-25T02:07:13;25.10;75.20
52739;DHT22;52466;40.122;18.318;2022-08-25T02:10:21;25.10;75.30
52739;DHT22;52466;40.122;18.318;2022-08-25T02:13:30;25.10;75.50
52739;DHT22;52466;40.122;18.318;2022-08-25T02:16:39;25.10;75.70
52739;DHT22;52466;40.122;18.318;2022-08-25T02:19:47;25.10;75.90
52739;DHT22;52466;40.122;18.318;2022-08-25T02:22:55;25.20;75.90
52739;DHT22;52466;40.122;18.318;2022-08-25T02:26:03;25.10;76.10
52739;DHT22;52466;40.122;18.318;2022-08-25T02:29:12;25.10;76.20
52739;DHT22;52466;40.122;18.318;2022-08-25T02:32:20;25.10;76.30
52739;DHT22;52466;40.122;18.318;2022-08-25T02:35:27;25.10;76.30
52739;DHT22;52466;40.122;18.318;2022-08-25T02:38:36;25.20;76.40
52739;DHT22;52466;40.122;18.318;2022-08-25T02:41:44;25.20;76.40
52739;DHT22;52466;40.122;18.318;2022-08-25T02:44:52;25.20;76.60
52739;DHT22;52466;40.122;18.318;2022-08-25T02:48:00;25.10;76.70
52739;DHT22;52466;40.122;18.318;2022-08-25T02:51:08;25.20;76.90
52739;DHT22;52466;40.122;18.318;2022-08-25T02:54:16;25.20;77.00
52739;DHT22;52466;40.122;18.318;2022-08-25T02:57:24;25.10;77.20
52739;DHT22;52466;40.122;18.318;2022-08-25T03:00:32;25.20;77.50
52739;DHT22;52466;40.122;18.318;2022-08-25T03:03:41;25.20;77.80
52739;DHT22;52466;40.122;18.318;2022-08-25T03:06:48;25.10;78.00
52739;DHT22;52466;40.122;18.318;2022-08-25T03:09:56;25.10;78.30
52739;DHT22;52466;40.122;18.318;2022-08-25T03:13:04;25.10;78.50
52739;DHT22;52466;40.122;18.318;2022-08-25T03:16:12;25.10;78.60
52739;DHT22;52466;40.122;18.318;2022-08-25T03:19:19;25.10;78.70
52739;DHT22;52466;40.122;18.318;2022-08-25T03:22:27;25.10;78.90
52739;DHT22;52466;40.122;18.318;2022-08-25T03:25:38;25.10;79.20
52739;DHT22;52466;40.122;18.318;2022-08-25T03:29:05;25.10;79.20
52739;DHT22;52466;40.122;18.318;2022-08-25T03:32:13;25.10;79.50
52739;DHT22;52466;40.122;18.318;2022-08-25T03:35:21;25.10;79.70
52739;DHT22;52466;40.122;18.318;2022-08-25T03:38:29;25.10;79.90
52739;DHT22;52466;40.122;18.318;2022-08-25T03:41:36;25.10;80.10
52739;DHT22;52466;40.122;18.318;2022-08-25T03:44:44;25.10;80.20
52739;DHT22;52466;40.122;18.318;2022-08-25T03:47:52;25.10;80.30
52739;DHT22;52466;40.122;18.318;2022-08-25T03:51:00;25.10;80.40
52739;DHT22;52466;40.122;18.318;2022-08-25T03:54:09;25.10;80.40
52739;DHT22;52466;40.122;18.318;2022-08-25T03:57:17;25.10;80.50
52739;DHT22;52466;40.122;18.318;2022-08-25T04:00:27;25.10;80.60
52739;DHT22;52466;40.122;18.318;2022-08-25T04:03:35;25.00;80.70
52739;DHT22;52466;40.122;18.318;2022-08-25T04:06:43;25.00;80.70
52739;DHT22;52466;40.122;18.318;2022-08-25T04:09:53;25.10;80.70
52739;DHT22;52466;40.122;18.318;2022-08-25T04:13:01;25.00;80.70
52739;DHT22;52466;40.122;18.318;2022-08-25T04:16:11;25.00;80.70
52739;DHT22;52466;40.122;18.318;2022-08-25T04:19:19;25.10;80.60
52739;DHT22;52466;40.122;18.318;2022-08-25T04:22:27;25.00;80.60
52739;DHT22;52466;40.122;18.318;2022-08-25T04:25:39;25.00;80.50
52739;DHT22;52466;40.122;18.318;2022-08-25T04:28:48;25.00;80.50
52739;DHT22;52466;40.122;18.318;2022-08-25T04:31:56;25.10;80.40
52739;DHT22;52466;40.122;18.318;2022-08-25T04:35:04;25.10;80.50
52739;DHT22;52466;40.122;18.318;2022-08-25T04:38:13;25.10;80.50
52739;DHT22;52466;40.122;18.318;2022-08-25T04:41:22;25.10;80.60
52739;DHT22;52466;40.122;18.318;2022-08-25T04:44:31;25.20;80.60
52739;DHT22;52466;40.122;18.318;2022-08-25T04:47:39;25.20;80.60
52739;DHT22;52466;40.122;18.318;2022-08-25T04:50:46;25.20;80.60
52739;DHT22;52466;40.122;18.318;2022-08-25T04:53:57;25.20;80.60
52739;DHT22;52466;40.122;18.318;2022-08-25T04:57:04;25.20;80.60
52739;DHT22;52466;40.122;18.318;2022-08-25T05:00:13;25.30;80.40
52739;DHT22;52466;40.122;18.318;2022-08-25T05:03:16;25.30;80.30
52739;DHT22;52466;40.122;18.318;2022-08-25T05:06:26;25.40;80.10
52739;DHT22;52466;40.122;18.318;2022-08-25T05:09:33;25.40;80.00
52739;DHT22;52466;40.122;18.318;2022-08-25T05:12:41;25.40;79.90
52739;DHT22;52466;40.122;18.318;2022-08-25T05:15:54;25.50;79.70
52739;DHT22;52466;40.122;18.318;2022-08-25T05:19:02;25.50;79.50
52739;DHT22;52466;40.122;18.318;2022-08-25T05:22:11;25.50;79.30
52739;DHT22;52466;40.122;18.318;2022-08-25T05:25:19;25.50;79.10
52739;DHT22;52466;40.122;18.318;2022-08-25T05:28:27;25.60;78.90
52739;DHT22;52466;40.122;18.318;2022-08-25T05:31:35;25.60;78.60
52739;DHT22;52466;40.122;18.318;2022-08-25T05:34:43;25.60;78.40
52739;DHT22;52466;40.122;18.318;2022-08-25T05:37:50;25.60;78.40
52739;DHT22;52466;40.122;18.318;2022-08-25T05:41:01;25.70;78.50
52739;DHT22;52466;40.122;18.318;2022-08-25T05:44:09;25.70;78.40
52739;DHT22;52466;40.122;18.318;2022-08-25T05:47:18;25.70;78.10
52739;DHT22;52466;40.122;18.318;2022-08-25T05:50:26;25.70;78.10
52739;DHT22;52466;40.122;18.318;2022-08-25T05:53:35;25.70;78.10
52739;DHT22;52466;40.122;18.318;2022-08-25T05:56:42;25.80;78.00
52739;DHT22;52466;40.122;18.318;2022-08-25T05:59:51;25.90;77.80
52739;DHT22;52466;40.122;18.318;2022-08-25T06:02:59;26.00;77.70
52739;DHT22;52466;40.122;18.318;2022-08-25T06:06:07;26.00;77.50
52739;DHT22;52466;40.122;18.318;2022-08-25T06:09:15;26.00;77.30
52739;DHT22;52466;40.122;18.318;2022-08-25T06:12:22;26.00;77.10
52739;DHT22;52466;40.122;18.318;2022-08-25T06:15:30;26.00;77.30
52739;DHT22;52466;40.122;18.318;2022-08-25T06:18:38;26.20;76.80
52739;DHT22;52466;40.122;18.318;2022-08-25T06:21:46;26.30;76.40
52739;DHT22;52466;40.122;18.318;2022-08-25T06:24:54;26.80;75.20
52739;DHT22;52466;40.122;18.318;2022-08-25T06:28:02;26.90;74.00
52739;DHT22;52466;40.122;18.318;2022-08-25T06:31:10;26.90;73.90
52739;DHT22;52466;40.122;18.318;2022-08-25T06:34:19;26.80;74.10
52739;DHT22;52466;40.122;18.318;2022-08-25T06:37:27;26.80;74.60
52739;DHT22;52466;40.122;18.318;2022-08-25T06:40:35;26.80;74.70
52739;DHT22;52466;40.122;18.318;2022-08-25T06:43:43;26.70;74.70
52739;DHT22;52466;40.122;18.318;2022-08-25T06:46:52;26.70;74.60
52739;DHT22;52466;40.122;18.318;2022-08-25T06:50:00;26.80;74.70
52739;DHT22;52466;40.122;18.318;2022-08-25T06:53:11;27.00;74.00
52739;DHT22;52466;40.122;18.318;2022-08-25T06:56:20;27.50;71.80
52739;DHT22;52466;40.122;18.318;2022-08-25T06:59:28;28.00;70.40
52739;DHT22;52466;40.122;18.318;2022-08-25T07:02:36;28.20;69.30
52739;DHT22;52466;40.122;18.318;2022-08-25T07:05:40;28.40;68.70
52739;DHT22;52466;40.122;18.318;2022-08-25T07:08:48;28.50;68.20
52739;DHT22;52466;40.122;18.318;2022-08-25T07:11:56;28.50;68.00
52739;DHT22;52466;40.122;18.318;2022-08-25T07:15:00;28.40;66.90
52739;DHT22;52466;40.122;18.318;2022-08-25T07:18:08;28.30;67.20
52739;DHT22;52466;40.122;18.318;2022-08-25T07:21:12;28.30;67.60
52739;DHT22;52466;40.122;18.318;2022-08-25T07:24:22;28.20;67.40
52739;DHT22;52466;40.122;18.318;2022-08-25T07:27:30;28.40;66.50
52739;DHT22;52466;40.122;18.318;2022-08-25T07:30:38;28.50;65.60
52739;DHT22;52466;40.122;18.318;2022-08-25T07:33:45;28.60;65.20
52739;DHT22;52466;40.122;18.318;2022-08-25T07:37:12;28.60;65.00
52739;DHT22;52466;40.122;18.318;2022-08-25T07:40:29;28.50;65.10
52739;DHT22;52466;40.122;18.318;2022-08-25T07:43:38;28.50;65.80
52739;DHT22;52466;40.122;18.318;2022-08-25T07:46:45;28.50;65.20
52739;DHT22;52466;40.122;18.318;2022-08-25T07:49:53;28.50;64.60
52739;DHT22;52466;40.122;18.318;2022-08-25T07:53:01;28.50;64.40
52739;DHT22;52466;40.122;18.318;2022-08-25T07:56:14;28.60;64.40
52739;DHT22;52466;40.122;18.318;2022-08-25T07:59:22;28.70;64.10
52739;DHT22;52466;40.122;18.318;2022-08-25T08:02:30;28.70;64.00
52739;DHT22;52466;40.122;18.318;2022-08-25T08:05:41;28.80;62.90
52739;DHT22;52466;40.122;18.318;2022-08-25T08:08:46;28.80;62.70
52739;DHT22;52466;40.122;18.318;2022-08-25T08:11:55;28.70;62.40
52739;DHT22;52466;40.122;18.318;2022-08-25T08:15:05;28.80;62.80
52739;DHT22;52466;40.122;18.318;2022-08-25T08:18:13;29.00;63.20
52739;DHT22;52466;40.122;18.318;2022-08-25T08:21:26;29.10;62.60
52739;DHT22;52466;40.122;18.318;2022-08-25T08:24:31;29.20;62.50
52739;DHT22;52466;40.122;18.318;2022-08-25T08:27:39;29.10;62.60
52739;DHT22;52466;40.122;18.318;2022-08-25T08:30:47;29.00;63.10
52739;DHT22;52466;40.122;18.318;2022-08-25T08:33:57;29.00;63.40
52739;DHT22;52466;40.122;18.318;2022-08-25T08:37:06;29.00;62.80
52739;DHT22;52466;40.122;18.318;2022-08-25T08:40:16;29.00;63.30
52739;DHT22;52466;40.122;18.318;2022-08-25T08:43:24;29.10;63.00
52739;DHT22;52466;40.122;18.318;2022-08-25T08:47:52;29.20;62.50
52739;DHT22;52466;40.122;18.318;2022-08-25T08:54:08;29.10;61.70
52739;DHT22;52466;40.122;18.318;2022-08-25T08:57:19;29.10;62.10
52739;DHT22;52466;40.122;18.318;2022-08-25T09:00:32;29.20;62.10
52739;DHT22;52466;40.122;18.318;2022-08-25T09:03:49;29.30;61.00
52739;DHT22;52466;40.122;18.318;2022-08-25T09:07:00;29.30;60.80
52739;DHT22;52466;40.122;18.318;2022-08-25T09:10:10;29.20;60.80
52739;DHT22;52466;40.122;18.318;2022-08-25T09:17:05;29.50;60.40
52739;DHT22;52466;40.122;18.318;2022-08-25T09:20:42;29.50;60.30
52739;DHT22;52466;40.122;18.318;2022-08-25T09:27:13;29.70;60.00
52739;DHT22;52466;40.122;18.318;2022-08-25T09:30:27;29.80;59.90
52739;DHT22;52466;40.122;18.318;2022-08-25T09:33:35;29.80;59.60
52739;DHT22;52466;40.122;18.318;2022-08-25T09:36:43;29.80;60.00
52739;DHT22;52466;40.122;18.318;2022-08-25T09:39:54;29.80;59.20
52739;DHT22;52466;40.122;18.318;2022-08-25T09:46:35;29.80;59.20
52739;DHT22;52466;40.122;18.318;2022-08-25T09:50:02;29.90;58.40
52739;DHT22;52466;40.122;18.318;2022-08-25T09:53:13;30.00;57.40
52739;DHT22;52466;40.122;18.318;2022-08-25T09:56:25;30.00;58.00
52739;DHT22;52466;40.122;18.318;2022-08-25T09:59:35;30.00;57.30
52739;DHT22;52466;40.122;18.318;2022-08-25T10:02:59;30.40;56.30
52739;DHT22;52466;40.122;18.318;2022-08-25T10:06:11;30.50;54.80
52739;DHT22;52466;40.122;18.318;2022-08-25T10:09:32;30.60;55.90
52739;DHT22;52466;40.122;18.318;2022-08-25T10:12:44;30.70;56.00
52739;DHT22;52466;40.122;18.318;2022-08-25T10:19:25;30.90;54.30
52739;DHT22;52466;40.122;18.318;2022-08-25T10:22:34;30.80;52.30
52739;DHT22;52466;40.122;18.318;2022-08-25T10:25:45;30.70;53.10
52739;DHT22;52466;40.122;18.318;2022-08-25T10:35:23;30.60;52.10
52739;DHT22;52466;40.122;18.318;2022-08-25T10:42:06;30.90;52.40
52739;DHT22;52466;40.122;18.318;2022-08-25T10:45:19;30.90;51.60
52739;DHT22;52466;40.122;18.318;2022-08-25T10:48:50;30.80;50.40
52739;DHT22;52466;40.122;18.318;2022-08-25T10:52:06;30.80;51.80
52739;DHT22;52466;40.122;18.318;2022-08-25T11:06:02;30.50;56.60
52739;DHT22;52466;40.122;18.318;2022-08-25T11:09:14;30.40;56.40
52739;DHT22;52466;40.122;18.318;2022-08-25T11:12:42;30.30;56.70
52739;DHT22;52466;40.122;18.318;2022-08-25T11:15:55;30.20;57.00
52739;DHT22;52466;40.122;18.318;2022-08-25T11:22:24;30.50;56.40
52739;DHT22;52466;40.122;18.318;2022-08-25T11:25:43;30.70;53.50
52739;DHT22;52466;40.122;18.318;2022-08-25T11:29:15;31.00;51.60
52739;DHT22;52466;40.122;18.318;2022-08-25T11:32:25;31.00;50.00
52739;DHT22;52466;40.122;18.318;2022-08-25T11:35:46;31.00;48.80
52739;DHT22;52466;40.122;18.318;2022-08-25T11:45:44;30.70;49.20
52739;DHT22;52466;40.122;18.318;2022-08-25T11:55:48;30.50;44.70
52739;DHT22;52466;40.122;18.318;2022-08-25T11:58:56;30.50;44.60
52739;DHT22;52466;40.122;18.318;2022-08-25T12:02:04;30.40;44.00
52739;DHT22;52466;40.122;18.318;2022-08-25T12:11:57;30.30;42.40
52739;DHT22;52466;40.122;18.318;2022-08-25T12:18:39;30.50;42.70
52739;DHT22;52466;40.122;18.318;2022-08-25T12:21:50;30.70;43.10
52739;DHT22;52466;40.122;18.318;2022-08-25T12:25:17;30.90;42.10
52739;DHT22;52466;40.122;18.318;2022-08-25T12:35:59;30.50;46.90
52739;DHT22;52466;40.122;18.318;2022-08-25T12:39:20;30.20;48.40
52739;DHT22;52466;40.122;18.318;2022-08-25T12:42:41;30.10;48.60
52739;DHT22;52466;40.122;18.318;2022-08-25T12:45:52;30.10;47.80
52739;DHT22;52466;40.122;18.318;2022-08-25T12:49:11;30.20;47.90
52739;DHT22;52466;40.122;18.318;2022-08-25T12:52:36;30.30;49.30
52739;DHT22;52466;40.122;18.318;2022-08-25T12:55:51;30.30;49.00
52739;DHT22;52466;40.122;18.318;2022-08-25T13:02:30;30.50;52.40
52739;DHT22;52466;40.122;18.318;2022-08-25T13:16:00;30.50;54.20
52739;DHT22;52466;40.122;18.318;2022-08-25T13:19:05;30.50;54.30
52739;DHT22;52466;40.122;18.318;2022-08-25T13:22:14;30.50;54.40
52739;DHT22;52466;40.122;18.318;2022-08-25T13:25:26;30.50;54.20
52739;DHT22;52466;40.122;18.318;2022-08-25T13:28:37;30.40;54.20
52739;DHT22;52466;40.122;18.318;2022-08-25T13:32:05;30.30;54.10
52739;DHT22;52466;40.122;18.318;2022-08-25T13:35:17;30.40;53.50
52739;DHT22;52466;40.122;18.318;2022-08-25T13:38:26;30.50;53.90
52739;DHT22;52466;40.122;18.318;2022-08-25T13:41:34;30.40;54.90
52739;DHT22;52466;40.122;18.318;2022-08-25T13:44:43;30.40;53.10
52739;DHT22;52466;40.122;18.318;2022-08-25T13:47:51;30.20;53.90
52739;DHT22;52466;40.122;18.318;2022-08-25T13:51:17;30.20;54.70
52739;DHT22;52466;40.122;18.318;2022-08-25T13:54:30;30.10;55.20
52739;DHT22;52466;40.122;18.318;2022-08-25T13:57:43;30.00;54.80
52739;DHT22;52466;40.122;18.318;2022-08-25T14:01:16;29.90;54.70
52739;DHT22;52466;40.122;18.318;2022-08-25T14:04:30;29.80;53.80
52739;DHT22;52466;40.122;18.318;2022-08-25T14:07:38;29.80;54.10
52739;DHT22;52466;40.122;18.318;2022-08-25T14:10:47;29.70;53.10
52739;DHT22;52466;40.122;18.318;2022-08-25T14:14:04;29.70;53.00
52739;DHT22;52466;40.122;18.318;2022-08-25T14:17:17;29.80;52.00
52739;DHT22;52466;40.122;18.318;2022-08-25T14:20:26;29.90;51.90
52739;DHT22;52466;40.122;18.318;2022-08-25T14:23:36;30.00;51.20
52739;DHT22;52466;40.122;18.318;2022-08-25T14:26:45;30.00;50.20
52739;DHT22;52466;40.122;18.318;2022-08-25T14:29:53;30.00;50.20
52739;DHT22;52466;40.122;18.318;2022-08-25T14:33:03;30.00;49.80
52739;DHT22;52466;40.122;18.318;2022-08-25T14:36:11;30.00;49.70
52739;DHT22;52466;40.122;18.318;2022-08-25T14:39:20;30.00;50.80
52739;DHT22;52466;40.122;18.318;2022-08-25T14:42:27;30.10;50.10
52739;DHT22;52466;40.122;18.318;2022-08-25T14:45:39;30.20;50.50
52739;DHT22;52466;40.122;18.318;2022-08-25T14:48:51;30.20;50.90
52739;DHT22;52466;40.122;18.318;2022-08-25T14:52:03;30.10;50.00
52739;DHT22;52466;40.122;18.318;2022-08-25T14:55:13;30.10;50.20
52739;DHT22;52466;40.122;18.318;2022-08-25T14:58:22;30.00;49.80
52739;DHT22;52466;40.122;18.318;2022-08-25T15:01:31;30.00;50.30
52739;DHT22;52466;40.122;18.318;2022-08-25T15:04:34;30.10;50.30
52739;DHT22;52466;40.122;18.318;2022-08-25T15:07:42;30.10;50.20
52739;DHT22;52466;40.122;18.318;2022-08-25T15:11:09;30.00;50.40
52739;DHT22;52466;40.122;18.318;2022-08-25T15:14:20;30.00;49.40
52739;DHT22;52466;40.122;18.318;2022-08-25T15:17:29;30.00;48.70
52739;DHT22;52466;40.122;18.318;2022-08-25T15:20:37;30.00;49.40
52739;DHT22;52466;40.122;18.318;2022-08-25T15:23:40;30.00;51.10
52739;DHT22;52466;40.122;18.318;2022-08-25T15:26:55;30.00;52.30
52739;DHT22;52466;40.122;18.318;2022-08-25T15:30:03;29.80;53.00
52739;DHT22;52466;40.122;18.318;2022-08-25T15:33:12;29.80;53.30
52739;DHT22;52466;40.122;18.318;2022-08-25T15:36:32;29.80;53.80
52739;DHT22;52466;40.122;18.318;2022-08-25T15:39:42;29.70;53.70
52739;DHT22;52466;40.122;18.318;2022-08-25T15:42:50;29.80;53.80
52739;DHT22;52466;40.122;18.318;2022-08-25T15:45:58;29.80;53.90
52739;DHT22;52466;40.122;18.318;2022-08-25T15:49:06;29.90;53.40
52739;DHT22;52466;40.122;18.318;2022-08-25T15:52:13;30.00;53.20
52739;DHT22;52466;40.122;18.318;2022-08-25T15:59:36;29.90;51.90
52739;DHT22;52466;40.122;18.318;2022-08-25T16:02:44;29.90;52.40
52739;DHT22;52466;40.122;18.318;2022-08-25T16:05:52;29.80;52.80
52739;DHT22;52466;40.122;18.318;2022-08-25T16:09:00;29.80;52.80
52739;DHT22;52466;40.122;18.318;2022-08-25T16:12:08;29.70;52.10
52739;DHT22;52466;40.122;18.318;2022-08-25T16:15:16;29.50;52.00
52739;DHT22;52466;40.122;18.318;2022-08-25T16:18:25;29.50;52.10
52739;DHT22;52466;40.122;18.318;2022-08-25T16:21:34;29.40;51.90
52739;DHT22;52466;40.122;18.318;2022-08-25T16:24:43;29.30;51.90
52739;DHT22;52466;40.122;18.318;2022-08-25T16:27:52;29.20;51.90
52739;DHT22;52466;40.122;18.318;2022-08-25T16:31:00;29.10;52.00
52739;DHT22;52466;40.122;18.318;2022-08-25T16:34:07;29.10;51.60
52739;DHT22;52466;40.122;18.318;2022-08-25T16:37:15;29.00;51.50
52739;DHT22;52466;40.122;18.318;2022-08-25T16:40:23;29.00;51.70
52739;DHT22;52466;40.122;18.318;2022-08-25T16:43:32;28.90;51.90
52739;DHT22;52466;40.122;18.318;2022-08-25T16:46:41;28.80;52.30
52739;DHT22;52466;40.122;18.318;2022-08-25T16:49:49;28.70;52.10
52739;DHT22;52466;40.122;18.318;2022-08-25T16:52:57;28.60;51.70
52739;DHT22;52466;40.122;18.318;2022-08-25T16:56:23;28.50;51.90
52739;DHT22;52466;40.122;18.318;2022-08-25T16:59:31;28.50;52.30
52739;DHT22;52466;40.122;18.318;2022-08-25T17:02:40;28.50;52.60
52739;DHT22;52466;40.122;18.318;2022-08-25T17:05:47;28.50;52.50
52739;DHT22;52466;40.122;18.318;2022-08-25T17:08:55;28.40;52.60
52739;DHT22;52466;40.122;18.318;2022-08-25T17:12:03;28.30;52.80
52739;DHT22;52466;40.122;18.318;2022-08-25T17:15:11;28.40;52.70
52739;DHT22;52466;40.122;18.318;2022-08-25T17:18:19;28.30;52.80
52739;DHT22;52466;40.122;18.318;2022-08-25T17:21:22;28.30;53.00
52739;DHT22;52466;40.122;18.318;2022-08-25T17:24:33;28.30;53.20
52739;DHT22;52466;40.122;18.318;2022-08-25T17:27:41;28.20;53.40
52739;DHT22;52466;40.122;18.318;2022-08-25T17:30:49;28.20;53.90
52739;DHT22;52466;40.122;18.318;2022-08-25T17:33:58;28.20;54.30
52739;DHT22;52466;40.122;18.318;2022-08-25T17:37:09;28.10;54.90
52739;DHT22;52466;40.122;18.318;2022-08-25T17:40:17;28.10;55.50
52739;DHT22;52466;40.122;18.318;2022-08-25T17:43:27;28.10;56.30
52739;DHT22;52466;40.122;18.318;2022-08-25T17:46:35;28.00;57.30
52739;DHT22;52466;40.122;18.318;2022-08-25T17:49:42;28.00;58.00
52739;DHT22;52466;40.122;18.318;2022-08-25T17:52:51;28.00;58.80
52739;DHT22;52466;40.122;18.318;2022-08-25T17:56:03;27.90;60.30
52739;DHT22;52466;40.122;18.318;2022-08-25T17:59:11;27.80;61.90
52739;DHT22;52466;40.122;18.318;2022-08-25T18:02:19;27.80;63.10
52739;DHT22;52466;40.122;18.318;2022-08-25T18:05:27;27.70;64.00
52739;DHT22;52466;40.122;18.318;2022-08-25T18:08:35;27.60;65.10
52739;DHT22;52466;40.122;18.318;2022-08-25T18:11:42;27.50;65.90
52739;DHT22;52466;40.122;18.318;2022-08-25T18:14:50;27.40;66.40
52739;DHT22;52466;40.122;18.318;2022-08-25T18:17:58;27.30;66.80
52739;DHT22;52466;40.122;18.318;2022-08-25T18:21:14;27.30;67.10
52739;DHT22;52466;40.122;18.318;2022-08-25T18:24:22;27.20;66.50
52739;DHT22;52466;40.122;18.318;2022-08-25T18:27:30;27.20;66.30
52739;DHT22;52466;40.122;18.318;2022-08-25T18:30:38;27.10;66.00
52739;DHT22;52466;40.122;18.318;2022-08-25T18:33:47;27.10;65.70
52739;DHT22;52466;40.122;18.318;2022-08-25T18:36:55;27.00;65.50
52739;DHT22;52466;40.122;18.318;2022-08-25T18:40:03;27.00;65.30
52739;DHT22;52466;40.122;18.318;2022-08-25T18:43:29;26.90;65.20
52739;DHT22;52466;40.122;18.318;2022-08-25T18:46:38;26.80;65.40
52739;DHT22;52466;40.122;18.318;2022-08-25T18:49:48;26.80;65.30
52739;DHT22;52466;40.122;18.318;2022-08-25T18:52:56;26.80;65.50
52739;DHT22;52466;40.122;18.318;2022-08-25T18:56:05;26.70;65.80
52739;DHT22;52466;40.122;18.318;2022-08-25T18:59:16;26.60;66.30
52739;DHT22;52466;40.122;18.318;2022-08-25T19:02:25;26.60;66.70
52739;DHT22;52466;40.122;18.318;2022-08-25T19:05:37;26.60;67.00
52739;DHT22;52466;40.122;18.318;2022-08-25T19:08:46;26.60;67.20
52739;DHT22;52466;40.122;18.318;2022-08-25T19:11:54;26.50;67.40
52739;DHT22;52466;40.122;18.318;2022-08-25T19:15:02;26.50;67.60
52739;DHT22;52466;40.122;18.318;2022-08-25T19:18:10;26.50;67.80
52739;DHT22;52466;40.122;18.318;2022-08-25T19:21:19;26.50;67.90
52739;DHT22;52466;40.122;18.318;2022-08-25T19:24:30;26.50;68.00
52739;DHT22;52466;40.122;18.318;2022-08-25T19:27:39;26.50;68.20
52739;DHT22;52466;40.122;18.318;2022-08-25T19:30:47;26.50;68.20
52739;DHT22;52466;40.122;18.318;2022-08-25T19:33:56;26.50;68.30
52739;DHT22;52466;40.122;18.318;2022-08-25T19:37:05;26.50;68.40
52739;DHT22;52466;40.122;18.318;2022-08-25T19:40:14;26.50;68.70
52739;DHT22;52466;40.122;18.318;2022-08-25T19:43:22;26.50;68.80
52739;DHT22;52466;40.122;18.318;2022-08-25T19:46:33;26.50;68.90
52739;DHT22;52466;40.122;18.318;2022-08-25T19:49:41;26.50;69.00
52739;DHT22;52466;40.122;18.318;2022-08-25T19:52:49;26.50;69.00
52739;DHT22;52466;40.122;18.318;2022-08-25T19:55:57;26.50;69.10
52739;DHT22;52466;40.122;18.318;2022-08-25T19:59:06;26.50;69.10
52739;DHT22;52466;40.122;18.318;2022-08-25T20:02:21;26.50;69.20
52739;DHT22;52466;40.122;18.318;2022-08-25T20:05:31;26.50;69.50
52739;DHT22;52466;40.122;18.318;2022-08-25T20:08:39;26.40;69.60
52739;DHT22;52466;40.122;18.318;2022-08-25T20:11:47;26.40;69.80
52739;DHT22;52466;40.122;18.318;2022-08-25T20:14:55;26.40;69.80
52739;DHT22;52466;40.122;18.318;2022-08-25T20:18:03;26.40;69.90
52739;DHT22;52466;40.122;18.318;2022-08-25T20:21:11;26.40;70.00
52739;DHT22;52466;40.122;18.318;2022-08-25T20:24:19;26.30;70.00
52739;DHT22;52466;40.122;18.318;2022-08-25T20:27:50;26.30;70.10
52739;DHT22;52466;40.122;18.318;2022-08-25T20:30:58;26.30;70.10
52739;DHT22;52466;40.122;18.318;2022-08-25T20:34:06;26.30;70.30
52739;DHT22;52466;40.122;18.318;2022-08-25T20:37:14;26.30;70.50
52739;DHT22;52466;40.122;18.318;2022-08-25T20:40:24;26.20;70.60
52739;DHT22;52466;40.122;18.318;2022-08-25T20:43:33;26.20;70.80
52739;DHT22;52466;40.122;18.318;2022-08-25T20:46:41;26.20;70.90
52739;DHT22;52466;40.122;18.318;2022-08-25T20:49:49;26.10;71.10
52739;DHT22;52466;40.122;18.318;2022-08-25T20:52:56;26.10;71.20
52739;DHT22;52466;40.122;18.318;2022-08-25T20:56:13;26.10;71.40
52739;DHT22;52466;40.122;18.318;2022-08-25T20:59:22;26.10;71.50
52739;DHT22;52466;40.122;18.318;2022-08-25T21:02:31;26.00;71.70
52739;DHT22;52466;40.122;18.318;2022-08-25T21:05:40;26.00;71.80
52739;DHT22;52466;40.122;18.318;2022-08-25T21:08:48;26.10;71.90
52739;DHT22;52466;40.122;18.318;2022-08-25T21:11:56;26.00;71.90